sensor_id;sensor_type;location;lat;lon;timestamp;temperature;humidity
51613;DHT22;37694;51.748;14.326;2023-04-25T00:01:15;24.30;42.70
51613;DHT22;37694;51.748;14.326;2023-04-25T00:03:40;24.30;42.70
51613;DHT22;37694;51.748;14.326;2023-04-25T00:06:06;24.20;42.60
51613;DHT22;37694;51.748;14.326;2023-04-25T00:08:33;24.20;42.70
51613;DHT22;37694;51.748;14.326;2023-04-25T00:10:59;24.20;42.60
51613;DHT22;37694;51.748;14.326;2023-04-25T00:13:25;24.20;42.80
51613;DHT22;37694;51.748;14.326;2023-04-25T00:15:52;24.20;42.80
51613;DHT22;37694;51.748;14.326;2023-04-25T00:18:21;24.20;42.90
51613;DHT22;37694;51.748;14.326;2023-04-25T00:20:47;24.10;43.40
51613;DHT22;37694;51.748;14.326;2023-04-25T00:23:14;24.20;43.30
51613;DHT22;37694;51.748;14.326;2023-04-25T00:25:47;24.10;42.90
51613;DHT22;37694;51.748;14.326;2023-04-25T00:28:14;24.20;42.80
51613;DHT22;37694;51.748;14.326;2023-04-25T00:30:40;24.20;42.90
51613;DHT22;37694;51.748;14.326;2023-04-25T00:33:06;24.20;43.10
51613;DHT22;37694;51.748;14.326;2023-04-25T00:35:32;24.20;43.00
51613;DHT22;37694;51.748;14.326;2023-04-25T00:37:57;24.20;43.10
51613;DHT22;37694;51.748;14.326;2023-04-25T00:40:23;24.20;43.10
51613;DHT22;37694;51.748;14.326;2023-04-25T00:42:50;24.20;43.10
51613;DHT22;37694;51.748;14.326;2023-04-25T00:45:17;24.20;43.90
51613;DHT22;37694;51.748;14.326;2023-04-25T00:47:43;24.20;43.20
51613;DHT22;37694;51.748;14.326;2023-04-25T00:50:10;24.10;43.10
51613;DHT22;37694;51.748;14.326;2023-04-25T00:52:41;24.20;43.10
51613;DHT22;37694;51.748;14.326;2023-04-25T00:55:08;24.20;43.10
51613;DHT22;37694;51.748;14.326;2023-04-25T00:57:35;24.10;43.10
51613;DHT22;37694;51.748;14.326;2023-04-25T01:00:01;24.10;43.10
51613;DHT22;37694;51.748;14.326;2023-04-25T01:02:29;24.10;43.10
51613;DHT22;37694;51.748;14.326;2023-04-25T01:04:55;24.10;43.00
51613;DHT22;37694;51.748;14.326;2023-04-25T01:07:21;24.10;43.00
51613;DHT22;37694;51.748;14.326;2023-04-25T01:09:46;24.10;43.00
51613;DHT22;37694;51.748;14.326;2023-04-25T01:12:13;24.10;42.90
51613;DHT22;37694;51.748;14.326;2023-04-25T01:14:40;24.10;43.00
51613;DHT22;37694;51.748;14.326;2023-04-25T01:17:06;24.10;43.90
51613;DHT22;37694;51.748;14.326;2023-04-25T01:19:33;24.10;43.20
51613;DHT22;37694;51.748;14.326;2023-04-25T01:21:59;24.10;43.00
51613;DHT22;37694;51.748;14.326;2023-04-25T01:24:25;24.10;43.10
51613;DHT22;37694;51.748;14.326;2023-04-25T01:26:51;24.10;43.10
51613;DHT22;37694;51.748;14.326;2023-04-25T01:29:21;24.10;43.30
51613;DHT22;37694;51.748;14.326;2023-04-25T01:31:46;24.10;43.10
51613;DHT22;37694;51.748;14.326;2023-04-25T01:34:12;24.10;43.20
51613;DHT22;37694;51.748;14.326;2023-04-25T01:36:39;24.10;43.30
51613;DHT22;37694;51.748;14.326;2023-04-25T01:39:04;24.00;43.20
51613;DHT22;37694;51.748;14.326;2023-04-25T01:41:30;24.00;43.40
51613;DHT22;37694;51.748;14.326;2023-04-25T01:43:56;24.00;43.70
51613;DHT22;37694;51.748;14.326;2023-04-25T01:46:22;24.00;43.40
51613;DHT22;37694;51.748;14.326;2023-04-25T01:48:48;24.00;44.50
51613;DHT22;37694;51.748;14.326;2023-04-25T01:51:13;24.00;43.50
51613;DHT22;37694;51.748;14.326;2023-04-25T01:53:40;23.90;44.10
51613;DHT22;37694;51.748;14.326;2023-04-25T01:56:06;23.90;43.70
51613;DHT22;37694;51.748;14.326;2023-04-25T01:58:32;23.90;43.70
51613;DHT22;37694;51.748;14.326;2023-04-25T02:00:58;23.90;43.60
51613;DHT22;37694;51.748;14.326;2023-04-25T02:03:23;23.90;44.00
51613;DHT22;37694;51.748;14.326;2023-04-25T02:05:49;23.80;43.90
51613;DHT22;37694;51.748;14.326;2023-04-25T02:08:16;23.80;44.00
51613;DHT22;37694;51.748;14.326;2023-04-25T02:10:43;23.80;44.20
51613;DHT22;37694;51.748;14.326;2023-04-25T02:13:08;23.80;43.90
51613;DHT22;37694;51.748;14.326;2023-04-25T02:15:34;23.80;43.70
51613;DHT22;37694;51.748;14.326;2023-04-25T02:18:00;23.90;44.00
51613;DHT22;37694;51.748;14.326;2023-04-25T02:20:26;23.80;43.70
51613;DHT22;37694;51.748;14.326;2023-04-25T02:22:52;23.80;44.10
51613;DHT22;37694;51.748;14.326;2023-04-25T02:25:19;23.80;43.80
51613;DHT22;37694;51.748;14.326;2023-04-25T02:27:46;23.80;43.80
51613;DHT22;37694;51.748;14.326;2023-04-25T02:30:12;23.80;43.70
51613;DHT22;37694;51.748;14.326;2023-04-25T02:32:39;23.80;43.50
51613;DHT22;37694;51.748;14.326;2023-04-25T02:35:05;23.90;43.60
51613;DHT22;37694;51.748;14.326;2023-04-25T02:37:32;23.90;43.50
51613;DHT22;37694;51.748;14.326;2023-04-25T02:39:58;23.90;44.30
51613;DHT22;37694;51.748;14.326;2023-04-25T02:42:24;23.90;43.60
51613;DHT22;37694;51.748;14.326;2023-04-25T02:44:50;23.80;43.40
51613;DHT22;37694;51.748;14.326;2023-04-25T02:47:15;23.90;43.40
51613;DHT22;37694;51.748;14.326;2023-04-25T02:49:41;23.90;44.30
51613;DHT22;37694;51.748;14.326;2023-04-25T02:52:07;23.80;43.40
51613;DHT22;37694;51.748;14.326;2023-04-25T02:54:32;23.80;43.40
51613;DHT22;37694;51.748;14.326;2023-04-25T02:56:58;23.80;43.40
51613;DHT22;37694;51.748;14.326;2023-04-25T02:59:24;23.80;43.40
51613;DHT22;37694;51.748;14.326;2023-04-25T03:01:49;23.80;43.40
51613;DHT22;37694;51.748;14.326;2023-04-25T03:04:15;23.80;43.40
51613;DHT22;37694;51.748;14.326;2023-04-25T03:06:41;23.80;43.50
51613;DHT22;37694;51.748;14.326;2023-04-25T03:09:06;23.80;43.50
51613;DHT22;37694;51.748;14.326;2023-04-25T03:11:32;23.80;43.50
51613;DHT22;37694;51.748;14.326;2023-04-25T03:13:58;23.80;43.50
51613;DHT22;37694;51.748;14.326;2023-04-25T03:16:24;23.80;43.50
51613;DHT22;37694;51.748;14.326;2023-04-25T03:18:49;23.80;43.50
51613;DHT22;37694;51.748;14.326;2023-04-25T03:21:16;23.80;43.50
51613;DHT22;37694;51.748;14.326;2023-04-25T03:23:42;23.80;43.50
51613;DHT22;37694;51.748;14.326;2023-04-25T03:26:08;23.80;43.60
51613;DHT22;37694;51.748;14.326;2023-04-25T03:28:33;23.80;43.60
51613;DHT22;37694;51.748;14.326;2023-04-25T03:30:59;23.70;43.60
51613;DHT22;37694;51.748;14.326;2023-04-25T03:33:25;23.70;43.70
51613;DHT22;37694;51.748;14.326;2023-04-25T03:35:51;23.70;43.70
51613;DHT22;37694;51.748;14.326;2023-04-25T03:38:17;23.70;43.80
51613;DHT22;37694;51.748;14.326;2023-04-25T03:40:42;23.70;43.70
51613;DHT22;37694;51.748;14.326;2023-04-25T03:43:08;23.70;43.70
51613;DHT22;37694;51.748;14.326;2023-04-25T03:45:34;23.70;43.90
51613;DHT22;37694;51.748;14.326;2023-04-25T03:48:00;23.70;43.90
51613;DHT22;37694;51.748;14.326;2023-04-25T03:50:25;23.70;44.10
51613;DHT22;37694;51.748;14.326;2023-04-25T03:52:51;23.70;44.20
51613;DHT22;37694;51.748;14.326;2023-04-25T03:55:17;23.60;44.20
51613;DHT22;37694;51.748;14.326;2023-04-25T03:57:42;23.60;44.00
51613;DHT22;37694;51.748;14.326;2023-04-25T04:00:08;23.60;44.10
51613;DHT22;37694;51.748;14.326;2023-04-25T04:02:35;23.60;44.00
51613;DHT22;37694;51.748;14.326;2023-04-25T04:05:02;23.60;44.20
51613;DHT22;37694;51.748;14.326;2023-04-25T04:07:28;23.60;44.30
51613;DHT22;37694;51.748;14.326;2023-04-25T04:09:53;23.60;44.30
51613;DHT22;37694;51.748;14.326;2023-04-25T04:12:19;23.60;44.40
51613;DHT22;37694;51.748;14.326;2023-04-25T04:14:45;23.50;44.30
51613;DHT22;37694;51.748;14.326;2023-04-25T04:17:10;23.50;44.30
51613;DHT22;37694;51.748;14.326;2023-04-25T04:19:36;23.50;44.40
51613;DHT22;37694;51.748;14.326;2023-04-25T04:22:02;23.50;44.20
51613;DHT22;37694;51.748;14.326;2023-04-25T04:24:27;23.50;44.50
51613;DHT22;37694;51.748;14.326;2023-04-25T04:26:53;23.50;44.50
51613;DHT22;37694;51.748;14.326;2023-04-25T04:29:19;23.40;44.60
51613;DHT22;37694;51.748;14.326;2023-04-25T04:31:50;23.40;44.40
51613;DHT22;37694;51.748;14.326;2023-04-25T04:34:16;23.50;44.10
51613;DHT22;37694;51.748;14.326;2023-04-25T04:36:47;23.50;44.20
51613;DHT22;37694;51.748;14.326;2023-04-25T04:39:13;23.50;43.90
51613;DHT22;37694;51.748;14.326;2023-04-25T04:41:39;23.60;44.00
51613;DHT22;37694;51.748;14.326;2023-04-25T04:44:05;23.60;44.00
51613;DHT22;37694;51.748;14.326;2023-04-25T04:46:32;23.60;44.00
51613;DHT22;37694;51.748;14.326;2023-04-25T04:49:04;23.60;44.00
51613;DHT22;37694;51.748;14.326;2023-04-25T04:51:31;23.60;44.00
51613;DHT22;37694;51.748;14.326;2023-04-25T04:53:56;23.60;43.90
51613;DHT22;37694;51.748;14.326;2023-04-25T04:56:24;23.60;43.90
51613;DHT22;37694;51.748;14.326;2023-04-25T04:58:51;23.60;44.00
51613;DHT22;37694;51.748;14.326;2023-04-25T05:01:17;23.60;44.20
51613;DHT22;37694;51.748;14.326;2023-04-25T05:03:43;23.60;44.20
51613;DHT22;37694;51.748;14.326;2023-04-25T05:06:09;23.60;44.30
51613;DHT22;37694;51.748;14.326;2023-04-25T05:08:35;23.60;44.30
51613;DHT22;37694;51.748;14.326;2023-04-25T05:11:01;23.60;44.30
51613;DHT22;37694;51.748;14.326;2023-04-25T05:13:27;23.60;44.50
51613;DHT22;37694;51.748;14.326;2023-04-25T05:15:53;23.70;44.90
51613;DHT22;37694;51.748;14.326;2023-04-25T05:18:18;23.70;45.60
51613;DHT22;37694;51.748;14.326;2023-04-25T05:20:44;23.70;46.90
51613;DHT22;37694;51.748;14.326;2023-04-25T05:23:10;23.80;47.20
51613;DHT22;37694;51.748;14.326;2023-04-25T05:25:35;23.80;48.30
51613;DHT22;37694;51.748;14.326;2023-04-25T05:28:01;23.90;48.40
51613;DHT22;37694;51.748;14.326;2023-04-25T05:30:27;23.90;48.10
51613;DHT22;37694;51.748;14.326;2023-04-25T05:32:52;23.90;48.20
51613;DHT22;37694;51.748;14.326;2023-04-25T05:35:18;23.90;48.20
51613;DHT22;37694;51.748;14.326;2023-04-25T05:37:44;23.90;48.30
51613;DHT22;37694;51.748;14.326;2023-04-25T05:40:09;23.90;48.50
51613;DHT22;37694;51.748;14.326;2023-04-25T05:42:35;23.90;48.40
51613;DHT22;37694;51.748;14.326;2023-04-25T05:45:03;23.90;48.50
51613;DHT22;37694;51.748;14.326;2023-04-25T05:47:28;24.00;48.80
51613;DHT22;37694;51.748;14.326;2023-04-25T05:49:54;24.00;48.70
51613;DHT22;37694;51.748;14.326;2023-04-25T05:52:19;24.00;48.40
51613;DHT22;37694;51.748;14.326;2023-04-25T05:54:45;24.00;49.00
51613;DHT22;37694;51.748;14.326;2023-04-25T05:57:25;24.00;49.00
51613;DHT22;37694;51.748;14.326;2023-04-25T05:59:51;24.00;49.00
51613;DHT22;37694;51.748;14.326;2023-04-25T06:02:17;24.00;49.10
51613;DHT22;37694;51.748;14.326;2023-04-25T06:04:43;24.00;49.30
51613;DHT22;37694;51.748;14.326;2023-04-25T06:07:09;24.00;49.00
51613;DHT22;37694;51.748;14.326;2023-04-25T06:09:34;24.00;49.00
51613;DHT22;37694;51.748;14.326;2023-04-25T06:12:00;24.10;48.80
51613;DHT22;37694;51.748;14.326;2023-04-25T06:14:27;24.00;48.70
51613;DHT22;37694;51.748;14.326;2023-04-25T06:16:52;24.10;48.30
51613;DHT22;37694;51.748;14.326;2023-04-25T06:19:18;24.00;47.60
51613;DHT22;37694;51.748;14.326;2023-04-25T06:21:44;24.10;47.30
51613;DHT22;37694;51.748;14.326;2023-04-25T06:24:10;24.00;47.10
51613;DHT22;37694;51.748;14.326;2023-04-25T06:26:36;24.00;47.00
51613;DHT22;37694;51.748;14.326;2023-04-25T06:29:01;24.00;46.90
51613;DHT22;37694;51.748;14.326;2023-04-25T06:31:27;24.00;47.00
51613;DHT22;37694;51.748;14.326;2023-04-25T06:33:54;24.00;46.80
51613;DHT22;37694;51.748;14.326;2023-04-25T06:36:23;24.00;46.90
51613;DHT22;37694;51.748;14.326;2023-04-25T06:38:53;24.00;46.70
51613;DHT22;37694;51.748;14.326;2023-04-25T06:41:19;24.00;46.70
51613;DHT22;37694;51.748;14.326;2023-04-25T06:43:45;24.00;46.70
51613;DHT22;37694;51.748;14.326;2023-04-25T06:46:11;24.00;46.60
51613;DHT22;37694;51.748;14.326;2023-04-25T06:48:37;24.10;46.70
51613;DHT22;37694;51.748;14.326;2023-04-25T06:51:03;24.10;46.50
51613;DHT22;37694;51.748;14.326;2023-04-25T06:53:28;24.10;46.30
51613;DHT22;37694;51.748;14.326;2023-04-25T06:55:54;24.10;46.30
51613;DHT22;37694;51.748;14.326;2023-04-25T06:58:20;24.10;46.30
51613;DHT22;37694;51.748;14.326;2023-04-25T07:00:45;24.10;46.20
51613;DHT22;37694;51.748;14.326;2023-04-25T07:03:11;24.10;46.20
51613;DHT22;37694;51.748;14.326;2023-04-25T07:05:37;24.10;46.00
51613;DHT22;37694;51.748;14.326;2023-04-25T07:08:03;24.10;46.00
51613;DHT22;37694;51.748;14.326;2023-04-25T07:10:29;24.10;46.00
51613;DHT22;37694;51.748;14.326;2023-04-25T07:12:55;24.10;46.00
51613;DHT22;37694;51.748;14.326;2023-04-25T07:15:20;24.10;46.00
51613;DHT22;37694;51.748;14.326;2023-04-25T07:17:46;24.10;45.80
51613;DHT22;37694;51.748;14.326;2023-04-25T07:20:12;24.10;45.70
51613;DHT22;37694;51.748;14.326;2023-04-25T07:22:37;24.10;45.70
51613;DHT22;37694;51.748;14.326;2023-04-25T07:25:03;24.10;45.60
51613;DHT22;37694;51.748;14.326;2023-04-25T07:27:30;24.10;45.60
51613;DHT22;37694;51.748;14.326;2023-04-25T07:29:56;24.10;45.50
51613;DHT22;37694;51.748;14.326;2023-04-25T07:32:21;24.20;45.40
51613;DHT22;37694;51.748;14.326;2023-04-25T07:34:47;24.20;45.40
51613;DHT22;37694;51.748;14.326;2023-04-25T07:37:13;24.20;45.30
51613;DHT22;37694;51.748;14.326;2023-04-25T07:39:39;24.20;45.20
51613;DHT22;37694;51.748;14.326;2023-04-25T07:42:05;24.20;45.20
51613;DHT22;37694;51.748;14.326;2023-04-25T07:44:34;24.20;45.10
51613;DHT22;37694;51.748;14.326;2023-04-25T07:47:05;24.30;45.10
51613;DHT22;37694;51.748;14.326;2023-04-25T07:49:35;24.20;45.00
51613;DHT22;37694;51.748;14.326;2023-04-25T07:52:02;24.20;45.00
51613;DHT22;37694;51.748;14.326;2023-04-25T07:54:28;24.30;45.00
51613;DHT22;37694;51.748;14.326;2023-04-25T07:56:55;24.30;45.00
51613;DHT22;37694;51.748;14.326;2023-04-25T07:59:21;24.30;45.00
51613;DHT22;37694;51.748;14.326;2023-04-25T08:01:47;24.30;44.90
51613;DHT22;37694;51.748;14.326;2023-04-25T08:04:13;24.30;44.80
51613;DHT22;37694;51.748;14.326;2023-04-25T08:06:38;24.30;44.60
51613;DHT22;37694;51.748;14.326;2023-04-25T08:09:04;24.30;44.60
51613;DHT22;37694;51.748;14.326;2023-04-25T08:11:30;24.30;44.60
51613;DHT22;37694;51.748;14.326;2023-04-25T08:13:55;24.30;44.60
51613;DHT22;37694;51.748;14.326;2023-04-25T08:16:21;24.30;44.50
51613;DHT22;37694;51.748;14.326;2023-04-25T08:18:47;24.40;44.50
51613;DHT22;37694;51.748;14.326;2023-04-25T08:21:13;24.40;44.60
51613;DHT22;37694;51.748;14.326;2023-04-25T08:23:39;24.40;44.50
51613;DHT22;37694;51.748;14.326;2023-04-25T08:26:05;24.40;44.50
51613;DHT22;37694;51.748;14.326;2023-04-25T08:28:31;24.40;44.30
51613;DHT22;37694;51.748;14.326;2023-04-25T08:30:57;24.40;44.30
51613;DHT22;37694;51.748;14.326;2023-04-25T08:33:22;24.40;44.30
51613;DHT22;37694;51.748;14.326;2023-04-25T08:35:48;24.40;44.30
51613;DHT22;37694;51.748;14.326;2023-04-25T08:38:14;24.40;44.30
51613;DHT22;37694;51.748;14.326;2023-04-25T08:40:40;24.40;44.30
51613;DHT22;37694;51.748;14.326;2023-04-25T08:43:07;24.40;44.30
51613;DHT22;37694;51.748;14.326;2023-04-25T08:45:41;24.50;44.40
51613;DHT22;37694;51.748;14.326;2023-04-25T08:48:10;24.50;44.30
51613;DHT22;37694;51.748;14.326;2023-04-25T08:50:56;24.50;44.30
51613;DHT22;37694;51.748;14.326;2023-04-25T08:53:26;24.50;44.30
51613;DHT22;37694;51.748;14.326;2023-04-25T08:55:54;24.50;44.10
51613;DHT22;37694;51.748;14.326;2023-04-25T08:58:21;24.50;44.10
51613;DHT22;37694;51.748;14.326;2023-04-25T09:00:47;24.50;44.00
51613;DHT22;37694;51.748;14.326;2023-04-25T09:03:13;24.50;44.00
51613;DHT22;37694;51.748;14.326;2023-04-25T09:05:40;24.50;44.00
51613;DHT22;37694;51.748;14.326;2023-04-25T09:08:06;24.50;44.00
51613;DHT22;37694;51.748;14.326;2023-04-25T09:10:32;24.50;44.00
51613;DHT22;37694;51.748;14.326;2023-04-25T09:13:10;24.50;43.90
51613;DHT22;37694;51.748;14.326;2023-04-25T09:15:54;24.50;43.90
51613;DHT22;37694;51.748;14.326;2023-04-25T09:20:53;24.50;43.90
51613;DHT22;37694;51.748;14.326;2023-04-25T09:23:20;24.50;43.80
51613;DHT22;37694;51.748;14.326;2023-04-25T09:25:50;24.50;43.80
51613;DHT22;37694;51.748;14.326;2023-04-25T09:28:23;24.50;43.80
51613;DHT22;37694;51.748;14.326;2023-04-25T09:30:55;24.50;43.80
51613;DHT22;37694;51.748;14.326;2023-04-25T09:33:33;24.50;43.80
51613;DHT22;37694;51.748;14.326;2023-04-25T09:36:10;24.50;43.80
51613;DHT22;37694;51.748;14.326;2023-04-25T09:38:43;24.50;43.80
51613;DHT22;37694;51.748;14.326;2023-04-25T09:41:10;24.50;43.80
51613;DHT22;37694;51.748;14.326;2023-04-25T09:43:36;24.50;43.90
51613;DHT22;37694;51.748;14.326;2023-04-25T09:46:02;24.50;43.80
51613;DHT22;37694;51.748;14.326;2023-04-25T09:48:29;24.50;43.80
51613;DHT22;37694;51.748;14.326;2023-04-25T09:51:08;24.50;43.70
51613;DHT22;37694;51.748;14.326;2023-04-25T09:53:36;24.50;43.70
51613;DHT22;37694;51.748;14.326;2023-04-25T09:56:04;24.50;43.70
51613;DHT22;37694;51.748;14.326;2023-04-25T09:58:34;24.50;43.70
51613;DHT22;37694;51.748;14.326;2023-04-25T10:01:05;24.50;43.70
51613;DHT22;37694;51.748;14.326;2023-04-25T10:03:36;24.50;43.70
51613;DHT22;37694;51.748;14.326;2023-04-25T10:06:04;24.50;43.70
51613;DHT22;37694;51.748;14.326;2023-04-25T10:08:33;24.50;43.60
51613;DHT22;37694;51.748;14.326;2023-04-25T10:11:01;24.50;43.60
51613;DHT22;37694;51.748;14.326;2023-04-25T10:13:29;24.50;43.60
51613;DHT22;37694;51.748;14.326;2023-04-25T10:16:04;24.50;43.70
51613;DHT22;37694;51.748;14.326;2023-04-25T10:18:30;24.50;43.60
51613;DHT22;37694;51.748;14.326;2023-04-25T10:20:59;24.50;43.50
51613;DHT22;37694;51.748;14.326;2023-04-25T10:23:25;24.50;43.50
51613;DHT22;37694;51.748;14.326;2023-04-25T10:25:52;24.50;43.50
51613;DHT22;37694;51.748;14.326;2023-04-25T10:28:18;24.50;43.50
51613;DHT22;37694;51.748;14.326;2023-04-25T10:31:07;24.60;43.40
51613;DHT22;37694;51.748;14.326;2023-04-25T10:33:35;24.60;43.30
51613;DHT22;37694;51.748;14.326;2023-04-25T10:36:13;24.60;43.40
51613;DHT22;37694;51.748;14.326;2023-04-25T10:38:39;24.60;43.40
51613;DHT22;37694;51.748;14.326;2023-04-25T10:41:06;24.50;43.40
51613;DHT22;37694;51.748;14.326;2023-04-25T10:43:44;24.60;43.40
51613;DHT22;37694;51.748;14.326;2023-04-25T10:46:23;24.60;43.40
51613;DHT22;37694;51.748;14.326;2023-04-25T10:48:54;24.60;43.30
51613;DHT22;37694;51.748;14.326;2023-04-25T10:54:07;24.60;43.30
51613;DHT22;37694;51.748;14.326;2023-04-25T10:56:42;24.60;43.20
51613;DHT22;37694;51.748;14.326;2023-04-25T10:59:15;24.60;43.20
51613;DHT22;37694;51.748;14.326;2023-04-25T11:01:48;24.60;43.20
51613;DHT22;37694;51.748;14.326;2023-04-25T11:09:28;24.70;43.10
51613;DHT22;37694;51.748;14.326;2023-04-25T11:11:55;24.70;43.10
51613;DHT22;37694;51.748;14.326;2023-04-25T11:14:21;24.70;43.10
51613;DHT22;37694;51.748;14.326;2023-04-25T11:16:47;24.70;43.10
51613;DHT22;37694;51.748;14.326;2023-04-25T11:19:13;24.70;43.10
51613;DHT22;37694;51.748;14.326;2023-04-25T11:21:38;24.70;43.00
51613;DHT22;37694;51.748;14.326;2023-04-25T11:24:04;24.70;43.00
51613;DHT22;37694;51.748;14.326;2023-04-25T11:26:30;24.70;43.10
51613;DHT22;37694;51.748;14.326;2023-04-25T11:28:59;24.70;43.10
51613;DHT22;37694;51.748;14.326;2023-04-25T11:31:25;24.70;43.00
51613;DHT22;37694;51.748;14.326;2023-04-25T11:33:53;24.70;43.00
51613;DHT22;37694;51.748;14.326;2023-04-25T11:36:20;24.70;43.00
51613;DHT22;37694;51.748;14.326;2023-04-25T11:38:45;24.70;43.00
51613;DHT22;37694;51.748;14.326;2023-04-25T11:41:11;24.70;43.80
51613;DHT22;37694;51.748;14.326;2023-04-25T11:43:37;24.70;43.00
51613;DHT22;37694;51.748;14.326;2023-04-25T11:46:07;24.70;43.00
51613;DHT22;37694;51.748;14.326;2023-04-25T11:48:42;24.70;42.90
51613;DHT22;37694;51.748;14.326;2023-04-25T11:51:08;24.70;43.00
51613;DHT22;37694;51.748;14.326;2023-04-25T11:53:34;24.70;43.00
51613;DHT22;37694;51.748;14.326;2023-04-25T11:56:01;24.70;43.00
51613;DHT22;37694;51.748;14.326;2023-04-25T11:58:27;24.70;42.90
51613;DHT22;37694;51.748;14.326;2023-04-25T12:00:53;24.70;42.80
51613;DHT22;37694;51.748;14.326;2023-04-25T12:03:19;24.70;42.80
51613;DHT22;37694;51.748;14.326;2023-04-25T12:05:45;24.70;42.80
51613;DHT22;37694;51.748;14.326;2023-04-25T12:08:15;24.70;42.80
51613;DHT22;37694;51.748;14.326;2023-04-25T12:10:45;24.70;42.80
51613;DHT22;37694;51.748;14.326;2023-04-25T12:13:21;24.60;42.80
51613;DHT22;37694;51.748;14.326;2023-04-25T12:15:48;24.60;42.80
51613;DHT22;37694;51.748;14.326;2023-04-25T12:18:14;24.50;43.00
51613;DHT22;37694;51.748;14.326;2023-04-25T12:20:41;24.50;43.00
51613;DHT22;37694;51.748;14.326;2023-04-25T12:23:07;24.50;42.90
51613;DHT22;37694;51.748;14.326;2023-04-25T12:25:43;24.50;43.00
51613;DHT22;37694;51.748;14.326;2023-04-25T12:28:23;24.50;42.90
51613;DHT22;37694;51.748;14.326;2023-04-25T12:31:03;24.50;43.00
51613;DHT22;37694;51.748;14.326;2023-04-25T12:33:36;24.40;43.00
51613;DHT22;37694;51.748;14.326;2023-04-25T12:36:04;24.40;43.00
51613;DHT22;37694;51.748;14.326;2023-04-25T12:38:38;24.40;43.00
51613;DHT22;37694;51.748;14.326;2023-04-25T12:41:04;24.40;42.90
51613;DHT22;37694;51.748;14.326;2023-04-25T12:43:31;24.40;43.00
51613;DHT22;37694;51.748;14.326;2023-04-25T12:45:57;24.40;43.00
51613;DHT22;37694;51.748;14.326;2023-04-25T12:48:23;24.40;42.90
51613;DHT22;37694;51.748;14.326;2023-04-25T12:50:50;24.40;42.90
51613;DHT22;37694;51.748;14.326;2023-04-25T12:55:43;24.40;42.90
51613;DHT22;37694;51.748;14.326;2023-04-25T12:58:11;24.40;42.80
51613;DHT22;37694;51.748;14.326;2023-04-25T13:00:37;24.50;42.90
51613;DHT22;37694;51.748;14.326;2023-04-25T13:03:03;24.50;42.80
51613;DHT22;37694;51.748;14.326;2023-04-25T13:05:30;24.50;42.90
51613;DHT22;37694;51.748;14.326;2023-04-25T13:07:56;24.50;42.90
51613;DHT22;37694;51.748;14.326;2023-04-25T13:10:22;24.50;42.80
51613;DHT22;37694;51.748;14.326;2023-04-25T13:12:48;24.60;42.80
51613;DHT22;37694;51.748;14.326;2023-04-25T13:15:13;24.60;42.80
51613;DHT22;37694;51.748;14.326;2023-04-25T13:17:41;24.60;42.70
51613;DHT22;37694;51.748;14.326;2023-04-25T13:20:07;24.60;42.70
51613;DHT22;37694;51.748;14.326;2023-04-25T13:22:39;24.60;42.70
51613;DHT22;37694;51.748;14.326;2023-04-25T13:25:06;24.60;42.70
51613;DHT22;37694;51.748;14.326;2023-04-25T13:27:32;24.60;42.70
51613;DHT22;37694;51.748;14.326;2023-04-25T13:30:03;24.60;42.80
51613;DHT22;37694;51.748;14.326;2023-04-25T13:32:36;24.60;42.70
51613;DHT22;37694;51.748;14.326;2023-04-25T13:35:07;24.60;42.70
51613;DHT22;37694;51.748;14.326;2023-04-25T13:37:34;24.70;42.60
51613;DHT22;37694;51.748;14.326;2023-04-25T13:40:05;24.70;42.70
51613;DHT22;37694;51.748;14.326;2023-04-25T13:42:32;24.60;42.50
51613;DHT22;37694;51.748;14.326;2023-04-25T13:44:57;24.60;42.60
51613;DHT22;37694;51.748;14.326;2023-04-25T13:47:25;24.70;42.60
51613;DHT22;37694;51.748;14.326;2023-04-25T13:49:50;24.70;42.70
51613;DHT22;37694;51.748;14.326;2023-04-25T13:52:16;24.70;42.70
51613;DHT22;37694;51.748;14.326;2023-04-25T13:54:42;24.70;42.70
51613;DHT22;37694;51.748;14.326;2023-04-25T13:57:08;24.70;42.50
51613;DHT22;37694;51.748;14.326;2023-04-25T13:59:34;24.70;42.50
51613;DHT22;37694;51.748;14.326;2023-04-25T14:01:59;24.70;42.40
51613;DHT22;37694;51.748;14.326;2023-04-25T14:04:25;24.70;42.40
51613;DHT22;37694;51.748;14.326;2023-04-25T14:06:51;24.70;42.40
51613;DHT22;37694;51.748;14.326;2023-04-25T14:09:18;24.70;42.30
51613;DHT22;37694;51.748;14.326;2023-04-25T14:11:45;24.70;42.40
51613;DHT22;37694;51.748;14.326;2023-04-25T14:14:10;24.70;42.40
51613;DHT22;37694;51.748;14.326;2023-04-25T14:16:37;24.70;43.10
51613;DHT22;37694;51.748;14.326;2023-04-25T14:19:03;24.70;42.40
51613;DHT22;37694;51.748;14.326;2023-04-25T14:21:29;24.70;42.20
51613;DHT22;37694;51.748;14.326;2023-04-25T14:23:57;24.70;42.20
51613;DHT22;37694;51.748;14.326;2023-04-25T14:26:23;24.70;42.20
51613;DHT22;37694;51.748;14.326;2023-04-25T14:28:51;24.70;42.40
51613;DHT22;37694;51.748;14.326;2023-04-25T14:31:17;24.70;42.40
51613;DHT22;37694;51.748;14.326;2023-04-25T14:33:43;24.70;42.40
51613;DHT22;37694;51.748;14.326;2023-04-25T14:36:09;24.70;42.40
51613;DHT22;37694;51.748;14.326;2023-04-25T14:38:35;24.70;42.50
51613;DHT22;37694;51.748;14.326;2023-04-25T14:41:01;24.70;42.80
51613;DHT22;37694;51.748;14.326;2023-04-25T14:43:27;24.70;42.30
51613;DHT22;37694;51.748;14.326;2023-04-25T14:45:53;24.70;42.30
51613;DHT22;37694;51.748;14.326;2023-04-25T14:48:19;24.70;42.30
51613;DHT22;37694;51.748;14.326;2023-04-25T14:50:45;24.70;42.50
51613;DHT22;37694;51.748;14.326;2023-04-25T14:53:11;24.70;42.50
51613;DHT22;37694;51.748;14.326;2023-04-25T14:55:37;24.70;42.50
51613;DHT22;37694;51.748;14.326;2023-04-25T14:58:03;24.70;42.40
51613;DHT22;37694;51.748;14.326;2023-04-25T15:00:29;24.80;42.40
51613;DHT22;37694;51.748;14.326;2023-04-25T15:02:57;24.80;42.40
51613;DHT22;37694;51.748;14.326;2023-04-25T15:05:23;24.80;42.40
51613;DHT22;37694;51.748;14.326;2023-04-25T15:07:49;24.80;42.40
51613;DHT22;37694;51.748;14.326;2023-04-25T15:10:16;24.80;42.40
51613;DHT22;37694;51.748;14.326;2023-04-25T15:12:45;24.80;42.40
51613;DHT22;37694;51.748;14.326;2023-04-25T15:15:11;24.80;42.50
51613;DHT22;37694;51.748;14.326;2023-04-25T15:17:43;24.80;42.40
51613;DHT22;37694;51.748;14.326;2023-04-25T15:20:11;24.80;42.40
51613;DHT22;37694;51.748;14.326;2023-04-25T15:22:38;24.80;42.40
51613;DHT22;37694;51.748;14.326;2023-04-25T15:25:04;24.80;42.40
51613;DHT22;37694;51.748;14.326;2023-04-25T15:27:30;24.80;42.30